Time;durP1;ratioP1;P1;durP2;ratioP2;P2;SDS_P1;SDS_P2;PMS_P1;PMS_P2;Temp;Humidity;BMP_temperature;BMP_pressure;BME280_temperature;BME280_humidity;BME280_pressure;Samples;Min_cycle;Max_cycle;Signal;HPM_P1;HPM_P2
2023/06/18 00:01:02;;;;;;;6.10;4.03;;;;;;;;;;5026806;28;20265;-71
2023/06/18 00:03:28;;;;;;;8.40;4.50;;;;;;;;;;5010972;28;20297;-71
2023/06/18 00:05:56;;;;;;;6.90;4.43;;;;;;;;;;5029401;28;20376;-71
2023/06/18 00:08:21;;;;;;;4.30;3.70;;;;;;;;;;5027756;28;20177;-71
2023/06/18 00:10:46;;;;;;;5.72;4.80;;;;;;;;;;5025603;28;20554;-71
2023/06/18 00:13:12;;;;;;;6.93;4.53;;;;;;;;;;5030048;28;20198;-71
2023/06/18 00:15:37;;;;;;;7.40;4.45;;;;;;;;;;5008148;28;20277;-71
2023/06/18 00:18:02;;;;;;;6.82;5.00;;;;;;;;;;5029614;28;20197;-71
2023/06/18 00:20:27;;;;;;;7.35;4.38;;;;;;;;;;5029702;28;20268;-70
2023/06/18 00:22:53;;;;;;;5.82;4.97;;;;;;;;;;5012568;28;20344;-69
2023/06/18 00:25:18;;;;;;;5.55;4.13;;;;;;;;;;5024819;28;20382;-70
2023/06/18 00:27:44;;;;;;;5.57;4.53;;;;;;;;;;5011721;28;20266;-70
2023/06/18 00:30:09;;;;;;;6.25;5.45;;;;;;;;;;5032739;28;20596;-70
2023/06/18 00:32:34;;;;;;;7.10;4.85;;;;;;;;;;5011488;28;20189;-69
2023/06/18 00:35:00;;;;;;;8.50;5.22;;;;;;;;;;5014228;28;20174;-69
2023/06/18 00:37:27;;;;;;;9.40;5.43;;;;;;;;;;5015803;28;20229;-69
2023/06/18 00:39:53;;;;;;;12.05;5.70;;;;;;;;;;5033536;28;20194;-70
2023/06/18 00:42:18;;;;;;;8.05;5.43;;;;;;;;;;5032192;28;20583;-70
2023/06/18 00:44:43;;;;;;;7.25;5.07;;;;;;;;;;5014462;28;20256;-68
2023/06/18 00:47:11;;;;;;;6.53;5.20;;;;;;;;;;5010414;28;20691;-70
2023/06/18 00:49:36;;;;;;;8.50;5.30;;;;;;;;;;5027078;28;22028;-70
2023/06/18 00:52:02;;;;;;;9.63;5.32;;;;;;;;;;5032062;28;20220;-70
2023/06/18 00:54:28;;;;;;;6.50;5.00;;;;;;;;;;5032953;28;20179;-70
2023/06/18 00:56:53;;;;;;;10.68;6.07;;;;;;;;;;5031051;28;20206;-70
2023/06/18 00:59:22;;;;;;;6.95;5.75;;;;;;;;;;5015153;28;20684;-69
2023/06/18 01:01:55;;;;;;;6.93;5.72;;;;;;;;;;5031136;28;20224;-69
2023/06/18 01:04:21;;;;;;;6.53;5.50;;;;;;;;;;5031773;28;20680;-70
2023/06/18 01:06:51;;;;;;;9.82;5.57;;;;;;;;;;5014080;28;20182;-70
2023/06/18 01:09:19;;;;;;;8.07;5.68;;;;;;;;;;5030706;28;20179;-71
2023/06/18 01:11:45;;;;;;;6.15;5.50;;;;;;;;;;5012589;28;20558;-69
2023/06/18 01:14:10;;;;;;;10.88;5.80;;;;;;;;;;5029572;28;20167;-69
2023/06/18 01:16:37;;;;;;;11.07;6.03;;;;;;;;;;5012108;28;20189;-70
2023/06/18 01:19:04;;;;;;;8.73;5.68;;;;;;;;;;5031736;28;20209;-70
2023/06/18 01:21:32;;;;;;;8.57;6.07;;;;;;;;;;5030370;28;20612;-70
2023/06/18 01:24:03;;;;;;;8.63;5.28;;;;;;;;;;5021144;28;20183;-70
2023/06/18 01:26:30;;;;;;;12.10;6.43;;;;;;;;;;5030404;28;20615;-70
2023/06/18 01:28:58;;;;;;;7.75;5.70;;;;;;;;;;5027965;28;20181;-70
2023/06/18 01:31:24;;;;;;;9.18;5.30;;;;;;;;;;5013436;28;20217;-70
2023/06/18 01:33:51;;;;;;;10.65;5.95;;;;;;;;;;5030921;28;20178;-69
2023/06/18 01:36:24;;;;;;;7.93;6.10;;;;;;;;;;5014471;28;20182;-71
2023/06/18 01:38:51;;;;;;;8.07;6.13;;;;;;;;;;5028761;28;20170;-70
2023/06/18 01:41:20;;;;;;;11.98;6.22;;;;;;;;;;5007850;28;20230;-70
2023/06/18 01:43:48;;;;;;;10.30;6.47;;;;;;;;;;5010684;28;20582;-71
2023/06/18 01:46:16;;;;;;;9.10;6.45;;;;;;;;;;5013266;28;20178;-70
2023/06/18 01:48:44;;;;;;;8.25;6.00;;;;;;;;;;5030539;28;20194;-70
2023/06/18 01:51:10;;;;;;;7.03;5.63;;;;;;;;;;5030313;28;20273;-70
2023/06/18 01:53:37;;;;;;;7.07;5.60;;;;;;;;;;5010181;28;20702;-69
2023/06/18 01:56:02;;;;;;;8.65;6.38;;;;;;;;;;5011602;28;20183;-70
2023/06/18 01:58:31;;;;;;;8.95;6.45;;;;;;;;;;5011540;28;20186;-70
2023/06/18 02:00:58;;;;;;;9.90;5.95;;;;;;;;;;5022163;28;20743;-70
2023/06/18 02:03:23;;;;;;;8.57;6.32;;;;;;;;;;5010973;28;20217;-70
2023/06/18 02:05:49;;;;;;;9.63;7.00;;;;;;;;;;5030761;28;20182;-70
2023/06/18 02:08:14;;;;;;;7.38;6.35;;;;;;;;;;5029226;28;20178;-70
2023/06/18 02:10:39;;;;;;;8.30;6.43;;;;;;;;;;5030146;28;20228;-70
2023/06/18 02:13:05;;;;;;;12.15;7.57;;;;;;;;;;5030435;28;20205;-70
2023/06/18 02:15:30;;;;;;;9.85;6.82;;;;;;;;;;5013816;28;20554;-70
2023/06/18 02:17:56;;;;;;;8.82;6.50;;;;;;;;;;5023668;28;20706;-70
2023/06/18 02:20:21;;;;;;;14.38;6.95;;;;;;;;;;5031261;28;20238;-70
2023/06/18 02:22:47;;;;;;;9.60;6.85;;;;;;;;;;5031549;28;20453;-70
2023/06/18 02:25:12;;;;;;;9.27;6.70;;;;;;;;;;5031591;28;20556;-71
2023/06/18 02:27:37;;;;;;;10.00;6.60;;;;;;;;;;5031195;28;20179;-71
2023/06/18 02:30:03;;;;;;;9.45;7.22;;;;;;;;;;5031565;28;20206;-70
2023/06/18 02:32:30;;;;;;;10.75;7.63;;;;;;;;;;5030956;28;20178;-70
2023/06/18 02:34:55;;;;;;;10.10;7.63;;;;;;;;;;5013503;28;20185;-70
2023/06/18 02:37:21;;;;;;;8.27;6.65;;;;;;;;;;5008290;28;20178;-70
2023/06/18 02:39:46;;;;;;;8.35;6.13;;;;;;;;;;5030987;28;20206;-70
2023/06/18 02:42:11;;;;;;;9.23;7.07;;;;;;;;;;5030700;28;20194;-70
2023/06/18 02:44:36;;;;;;;11.93;7.10;;;;;;;;;;5031292;28;20561;-70
2023/06/18 02:47:02;;;;;;;11.40;7.30;;;;;;;;;;5030990;28;20181;-70
2023/06/18 02:49:27;;;;;;;9.93;7.53;;;;;;;;;;5012893;28;20269;-70
2023/06/18 02:51:52;;;;;;;10.45;7.57;;;;;;;;;;5030896;28;20174;-70
2023/06/18 02:54:18;;;;;;;9.52;6.85;;;;;;;;;;5022267;28;20559;-70
2023/06/18 02:56:43;;;;;;;8.75;7.10;;;;;;;;;;5028402;28;20468;-70
2023/06/18 02:59:08;;;;;;;10.88;6.65;;;;;;;;;;5030598;28;20182;-70
2023/06/18 03:01:33;;;;;;;12.70;6.97;;;;;;;;;;5029597;28;20210;-70
2023/06/18 03:03:58;;;;;;;11.13;7.05;;;;;;;;;;5013609;28;20170;-70
2023/06/18 03:06:24;;;;;;;10.95;7.78;;;;;;;;;;5031059;28;20232;-70
2023/06/18 03:08:49;;;;;;;10.52;7.63;;;;;;;;;;5030560;28;20171;-70
2023/06/18 03:11:14;;;;;;;10.75;7.20;;;;;;;;;;5023119;28;20201;-70
2023/06/18 03:13:40;;;;;;;11.50;7.55;;;;;;;;;;5012791;28;20277;-70
2023/06/18 03:16:05;;;;;;;10.02;7.18;;;;;;;;;;5030671;28;20261;-70
2023/06/18 03:18:31;;;;;;;12.77;8.30;;;;;;;;;;5012609;28;20345;-71
2023/06/18 03:20:56;;;;;;;12.13;7.10;;;;;;;;;;5029977;28;20301;-71
2023/06/18 03:23:21;;;;;;;11.27;7.40;;;;;;;;;;5030598;28;20202;-70
2023/06/18 03:25:47;;;;;;;9.82;7.35;;;;;;;;;;5030663;28;20216;-70
2023/06/18 03:28:12;;;;;;;11.65;7.47;;;;;;;;;;5029821;28;20256;-70
2023/06/18 03:30:38;;;;;;;11.65;7.95;;;;;;;;;;5030138;28;20233;-70
2023/06/18 03:33:03;;;;;;;10.40;6.75;;;;;;;;;;5012593;28;20241;-70
2023/06/18 03:35:29;;;;;;;9.77;6.88;;;;;;;;;;5030363;28;20269;-70
2023/06/18 03:37:54;;;;;;;11.45;8.13;;;;;;;;;;5011870;28;20182;-70
2023/06/18 03:40:20;;;;;;;11.68;7.30;;;;;;;;;;5012376;28;20202;-70
2023/06/18 03:42:45;;;;;;;9.18;6.85;;;;;;;;;;5030283;28;20198;-70
2023/06/18 03:45:10;;;;;;;12.80;6.80;;;;;;;;;;5030390;28;20241;-70
2023/06/18 03:47:35;;;;;;;11.25;6.93;;;;;;;;;;5012251;28;20181;-70
2023/06/18 03:50:01;;;;;;;11.50;7.40;;;;;;;;;;5030108;28;20197;-71
2023/06/18 03:52:26;;;;;;;9.55;7.07;;;;;;;;;;5030223;28;20218;-70
2023/06/18 03:54:52;;;;;;;9.75;7.38;;;;;;;;;;5030106;28;20257;-70
2023/06/18 03:57:17;;;;;;;8.30;7.40;;;;;;;;;;5030052;28;20177;-70
2023/06/18 03:59:42;;;;;;;12.23;7.82;;;;;;;;;;5029769;28;20206;-70
2023/06/18 04:02:07;;;;;;;11.00;7.03;;;;;;;;;;5029974;28;20226;-70
2023/06/18 04:04:33;;;;;;;10.68;6.65;;;;;;;;;;5029932;28;20532;-70
2023/06/18 04:06:58;;;;;;;12.60;7.95;;;;;;;;;;5016747;28;20189;-70
2023/06/18 04:09:23;;;;;;;10.30;7.32;;;;;;;;;;5034171;28;20170;-71
2023/06/18 04:11:48;;;;;;;13.50;8.80;;;;;;;;;;5030104;28;20191;-71
2023/06/18 04:14:14;;;;;;;10.63;7.80;;;;;;;;;;5029906;28;20174;-70
2023/06/18 04:16:39;;;;;;;12.40;7.35;;;;;;;;;;5034113;28;20179;-70
2023/06/18 04:19:04;;;;;;;8.63;6.47;;;;;;;;;;5032913;28;20536;-70
2023/06/18 04:21:29;;;;;;;8.68;7.07;;;;;;;;;;5015974;28;20269;-70
2023/06/18 04:23:55;;;;;;;9.95;7.38;;;;;;;;;;5033348;28;20236;-70
2023/06/18 04:26:21;;;;;;;11.55;8.00;;;;;;;;;;5033906;28;20174;-71
2023/06/18 04:28:46;;;;;;;10.23;7.38;;;;;;;;;;5015413;28;20259;-70
2023/06/18 04:31:11;;;;;;;15.75;7.93;;;;;;;;;;5033279;28;20252;-70
2023/06/18 04:33:36;;;;;;;11.85;7.90;;;;;;;;;;5033206;28;20232;-71
2023/06/18 04:36:02;;;;;;;10.45;6.97;;;;;;;;;;5033522;28;20182;-70
2023/06/18 04:38:27;;;;;;;10.02;7.38;;;;;;;;;;5014529;28;20174;-70
2023/06/18 04:40:52;;;;;;;10.35;7.57;;;;;;;;;;5033022;28;20753;-70
2023/06/18 04:43:18;;;;;;;10.00;6.93;;;;;;;;;;5015170;28;20285;-70
2023/06/18 04:45:46;;;;;;;9.32;6.80;;;;;;;;;;5015496;28;20174;-70
2023/06/18 04:48:12;;;;;;;10.30;7.05;;;;;;;;;;5032444;28;20181;-70
2023/06/18 04:50:38;;;;;;;12.18;7.32;;;;;;;;;;5015231;28;20284;-70
2023/06/18 04:53:04;;;;;;;11.20;7.00;;;;;;;;;;5015245;28;20236;-70
2023/06/18 04:55:29;;;;;;;10.65;7.55;;;;;;;;;;5025662;28;20191;-70
2023/06/18 04:57:55;;;;;;;9.27;6.35;;;;;;;;;;5011325;28;20262;-70
2023/06/18 05:00:21;;;;;;;10.45;7.15;;;;;;;;;;5032638;28;20222;-70
2023/06/18 05:02:46;;;;;;;9.95;6.70;;;;;;;;;;5014335;28;20233;-70
2023/06/18 05:05:11;;;;;;;11.18;7.63;;;;;;;;;;5014884;28;20182;-70
2023/06/18 05:07:37;;;;;;;9.60;7.13;;;;;;;;;;5021656;28;20601;-70
2023/06/18 05:10:02;;;;;;;10.52;8.20;;;;;;;;;;5031687;28;20293;-71
2023/06/18 05:12:27;;;;;;;9.73;7.07;;;;;;;;;;5031257;28;20186;-70
2023/06/18 05:14:52;;;;;;;11.03;7.63;;;;;;;;;;5032160;28;20179;-71
2023/06/18 05:17:17;;;;;;;11.80;8.27;;;;;;;;;;5032564;28;20419;-71
2023/06/18 05:19:43;;;;;;;9.93;8.07;;;;;;;;;;5032061;28;20431;-70
2023/06/18 05:22:08;;;;;;;11.43;7.22;;;;;;;;;;5014211;28;20206;-70
2023/06/18 05:24:33;;;;;;;11.68;7.63;;;;;;;;;;5014645;28;20675;-71
2023/06/18 05:26:58;;;;;;;11.13;7.82;;;;;;;;;;5032492;28;20225;-71
2023/06/18 05:29:23;;;;;;;10.80;7.30;;;;;;;;;;5014097;28;20182;-70
2023/06/18 05:31:49;;;;;;;9.97;7.43;;;;;;;;;;5032483;28;20170;-71
2023/06/18 05:34:14;;;;;;;10.73;7.95;;;;;;;;;;5014287;28;20952;-70
2023/06/18 05:36:39;;;;;;;12.15;7.70;;;;;;;;;;5032548;28;20170;-71
2023/06/18 05:39:05;;;;;;;9.55;7.25;;;;;;;;;;5014904;28;20240;-71
2023/06/18 05:41:30;;;;;;;12.05;7.90;;;;;;;;;;5031952;28;20186;-71
2023/06/18 05:43:55;;;;;;;12.87;7.03;;;;;;;;;;5014031;28;20305;-71
2023/06/18 05:46:20;;;;;;;13.13;7.97;;;;;;;;;;5036326;28;20416;-70
2023/06/18 05:48:45;;;;;;;12.95;7.97;;;;;;;;;;5031489;28;20185;-71
2023/06/18 05:51:11;;;;;;;10.95;7.00;;;;;;;;;;5031793;28;20194;-70
2023/06/18 05:53:36;;;;;;;10.43;7.47;;;;;;;;;;5031926;28;20182;-71
2023/06/18 05:56:01;;;;;;;13.07;8.37;;;;;;;;;;5031831;28;20205;-71
2023/06/18 05:58:26;;;;;;;10.80;8.45;;;;;;;;;;5031515;28;20411;-71
2023/06/18 06:00:52;;;;;;;9.85;7.65;;;;;;;;;;5022261;28;20198;-70
2023/06/18 06:03:17;;;;;;;10.18;7.90;;;;;;;;;;5029913;28;20202;-71
2023/06/18 06:05:42;;;;;;;12.55;7.45;;;;;;;;;;5029782;28;20189;-70
2023/06/18 06:08:07;;;;;;;10.48;7.55;;;;;;;;;;5030899;28;20185;-71
2023/06/18 06:10:33;;;;;;;11.23;7.73;;;;;;;;;;5030294;28;20198;-71
2023/06/18 06:12:58;;;;;;;12.02;9.18;;;;;;;;;;5030870;28;20434;-71
2023/06/18 06:15:23;;;;;;;10.77;7.73;;;;;;;;;;5031224;28;20339;-71
2023/06/18 06:17:48;;;;;;;9.05;7.20;;;;;;;;;;5030015;28;20431;-71
2023/06/18 06:20:14;;;;;;;9.10;7.87;;;;;;;;;;5023691;22;20317;-78
2023/06/18 06:22:39;;;;;;;11.95;9.27;;;;;;;;;;5017072;28;20452;-78
2023/06/18 06:25:05;;;;;;;11.25;8.32;;;;;;;;;;5015801;28;20187;-78
2023/06/18 06:27:30;;;;;;;13.25;8.73;;;;;;;;;;5034874;28;20189;-78
2023/06/18 06:29:55;;;;;;;9.63;7.60;;;;;;;;;;5025736;28;20199;-77
2023/06/18 06:32:20;;;;;;;11.77;8.30;;;;;;;;;;5034141;28;20731;-78
2023/06/18 06:34:45;;;;;;;11.10;7.77;;;;;;;;;;5028851;28;20580;-78
2023/06/18 06:37:11;;;;;;;10.60;8.23;;;;;;;;;;5025877;28;20423;-77
2023/06/18 06:39:36;;;;;;;11.27;8.52;;;;;;;;;;5030484;28;20801;-77
2023/06/18 06:42:02;;;;;;;12.57;8.90;;;;;;;;;;5022035;28;20225;-77
2023/06/18 06:44:27;;;;;;;13.55;8.32;;;;;;;;;;5029084;28;20510;-78
2023/06/18 06:46:52;;;;;;;10.57;8.93;;;;;;;;;;5024130;28;20174;-79
2023/06/18 06:49:17;;;;;;;12.00;8.80;;;;;;;;;;5030980;28;20925;-77
2023/06/18 06:51:42;;;;;;;14.23;10.30;;;;;;;;;;5023664;28;20458;-80
2023/06/18 06:54:09;;;;;;;12.25;10.02;;;;;;;;;;5025113;28;20409;-78
2023/06/18 06:56:34;;;;;;;13.23;8.48;;;;;;;;;;5031053;28;20177;-77
2023/06/18 06:58:59;;;;;;;13.45;8.65;;;;;;;;;;5024998;28;20179;-77
2023/06/18 07:01:25;;;;;;;11.68;9.63;;;;;;;;;;5006247;28;20202;-78
2023/06/18 07:03:50;;;;;;;22.02;9.90;;;;;;;;;;5025078;28;20298;-78
2023/06/18 07:06:15;;;;;;;16.50;10.40;;;;;;;;;;5028322;28;20171;-78
2023/06/18 07:08:40;;;;;;;12.85;9.18;;;;;;;;;;5030515;28;20205;-77
2023/06/18 07:11:06;;;;;;;12.93;9.63;;;;;;;;;;5012597;28;20242;-77
2023/06/18 07:13:31;;;;;;;10.00;8.02;;;;;;;;;;5031350;28;20183;-78
2023/06/18 07:15:57;;;;;;;12.13;9.68;;;;;;;;;;5026036;28;20178;-78
2023/06/18 07:18:22;;;;;;;10.15;7.90;;;;;;;;;;5032327;28;20158;-77
2023/06/18 07:20:47;;;;;;;11.27;9.27;;;;;;;;;;5025474;28;20214;-77
2023/06/18 07:23:12;;;;;;;11.55;7.43;;;;;;;;;;5008572;28;20205;-77
2023/06/18 07:25:38;;;;;;;12.07;9.90;;;;;;;;;;5032072;28;20182;-77
2023/06/18 07:28:03;;;;;;;12.88;9.80;;;;;;;;;;5016663;28;20182;-77
2023/06/18 07:30:28;;;;;;;9.90;8.85;;;;;;;;;;5032182;28;20260;-77
2023/06/18 07:32:53;;;;;;;14.90;9.30;;;;;;;;;;5032515;28;20240;-78
2023/06/18 07:35:18;;;;;;;11.23;9.40;;;;;;;;;;5032217;28;20776;-78
2023/06/18 07:37:44;;;;;;;11.10;9.73;;;;;;;;;;5017541;28;20426;-78
2023/06/18 07:40:09;;;;;;;10.93;8.90;;;;;;;;;;5036220;28;20483;-77
2023/06/18 07:42:35;;;;;;;13.15;9.93;;;;;;;;;;5030146;28;20194;-77
2023/06/18 07:45:00;;;;;;;12.07;10.27;;;;;;;;;;5031340;28;20185;-78
2023/06/18 07:47:25;;;;;;;12.32;9.80;;;;;;;;;;5018018;28;20178;-77
2023/06/18 07:49:50;;;;;;;14.82;9.32;;;;;;;;;;5033094;28;20198;-77
2023/06/18 07:52:16;;;;;;;10.48;9.30;;;;;;;;;;5035399;28;20170;-76
2023/06/18 07:54:41;;;;;;;9.38;7.97;;;;;;;;;;5037619;28;20178;-77
2023/06/18 07:57:06;;;;;;;13.33;9.93;;;;;;;;;;5036433;28;20784;-77
2023/06/18 07:59:32;;;;;;;14.50;8.43;;;;;;;;;;5017140;28;20424;-77
2023/06/18 08:01:57;;;;;;;9.83;7.93;;;;;;;;;;5027977;28;20496;-77
2023/06/18 08:04:22;;;;;;;14.30;9.60;;;;;;;;;;5031654;28;20430;-77
2023/06/18 08:06:50;;;;;;;10.80;8.35;;;;;;;;;;5035521;28;20213;-77
2023/06/18 08:09:15;;;;;;;8.63;6.88;;;;;;;;;;5020435;28;20258;-78
2023/06/18 08:11:41;;;;;;;11.57;9.47;;;;;;;;;;5008921;28;20282;-78
2023/06/18 08:14:07;;;;;;;14.50;8.65;;;;;;;;;;5014701;28;20430;-78
2023/06/18 08:16:32;;;;;;;9.23;8.23;;;;;;;;;;5015378;28;20688;-77
2023/06/18 08:18:57;;;;;;;10.07;8.27;;;;;;;;;;5030501;28;20188;-78
2023/06/18 08:21:22;;;;;;;9.95;7.38;;;;;;;;;;5033021;28;20463;-78
2023/06/18 08:23:48;;;;;;;11.70;8.93;;;;;;;;;;5032531;28;20210;-77
2023/06/18 08:26:13;;;;;;;9.15;8.15;;;;;;;;;;5017891;28;20952;-77
2023/06/18 08:28:39;;;;;;;9.70;7.75;;;;;;;;;;5027330;28;20309;-78
2023/06/18 08:31:04;;;;;;;8.70;7.53;;;;;;;;;;5030389;28;20206;-79
2023/06/18 08:33:29;;;;;;;9.32;7.47;;;;;;;;;;5036865;28;20435;-77
2023/06/18 08:35:55;;;;;;;9.75;7.30;;;;;;;;;;5036743;28;20265;-78
2023/06/18 08:38:20;;;;;;;8.88;7.20;;;;;;;;;;5017622;28;20185;-78
2023/06/18 08:40:50;;;;;;;10.23;7.33;;;;;;;;;;5016938;28;20209;-78
2023/06/18 08:43:21;;;;;;;8.43;6.07;;;;;;;;;;5038127;28;20461;-77
2023/06/18 08:45:47;;;;;;;9.38;7.35;;;;;;;;;;5035386;28;20200;-79
2023/06/18 08:48:13;;;;;;;6.97;6.28;;;;;;;;;;5014229;28;20657;-78
2023/06/18 08:50:38;;;;;;;8.80;7.00;;;;;;;;;;5032259;28;20889;-78
2023/06/18 08:53:08;;;;;;;7.78;6.93;;;;;;;;;;5027797;28;20186;-79
2023/06/18 08:55:34;;;;;;;8.40;6.80;;;;;;;;;;5032303;28;20207;-78
2023/06/18 08:58:09;;;;;;;12.68;7.30;;;;;;;;;;5015295;28;20182;-78
2023/06/18 09:00:34;;;;;;;7.63;6.88;;;;;;;;;;5036995;28;20205;-79
2023/06/18 09:03:00;;;;;;;9.85;6.10;;;;;;;;;;5016936;28;20202;-78
2023/06/18 09:05:26;;;;;;;9.40;7.70;;;;;;;;;;5036013;28;20671;-78
2023/06/18 09:07:51;;;;;;;6.93;5.90;;;;;;;;;;5034762;28;20613;-78
2023/06/18 09:10:17;;;;;;;6.45;5.43;;;;;;;;;;5005099;28;20206;-79
2023/06/18 09:12:43;;;;;;;7.25;5.75;;;;;;;;;;5032801;28;20186;-79
2023/06/18 09:15:08;;;;;;;8.57;6.70;;;;;;;;;;5008723;28;20594;-78
2023/06/18 09:17:35;;;;;;;7.43;6.45;;;;;;;;;;5031708;28;20576;-78
2023/06/18 09:20:01;;;;;;;5.57;4.53;;;;;;;;;;5016094;28;20217;-77
2023/06/18 09:22:26;;;;;;;7.22;6.10;;;;;;;;;;5034302;28;20211;-78
2023/06/18 09:24:58;;;;;;;6.13;5.40;;;;;;;;;;5032586;28;20461;-77
2023/06/18 09:27:31;;;;;;;4.97;4.40;;;;;;;;;;5029824;28;20205;-78
2023/06/18 09:29:56;;;;;;;6.68;5.97;;;;;;;;;;5027787;28;20220;-77
2023/06/18 09:32:21;;;;;;;5.70;4.68;;;;;;;;;;5012297;28;20713;-77
2023/06/18 09:34:47;;;;;;;12.20;5.67;;;;;;;;;;5015408;28;20197;-77
2023/06/18 09:37:13;;;;;;;6.23;5.63;;;;;;;;;;5027747;28;20528;-77
2023/06/18 09:39:40;;;;;;;7.57;5.45;;;;;;;;;;5014785;28;20427;-77
2023/06/18 09:42:06;;;;;;;7.35;5.25;;;;;;;;;;5016713;28;20281;-76
2023/06/18 09:44:32;;;;;;;5.63;4.90;;;;;;;;;;5013907;28;20231;-78
2023/06/18 09:46:57;;;;;;;5.88;5.32;;;;;;;;;;5027160;28;20182;-77
2023/06/18 09:49:23;;;;;;;5.63;5.03;;;;;;;;;;5033623;28;20182;-78
2023/06/18 09:51:51;;;;;;;7.60;5.93;;;;;;;;;;5016169;28;20202;-79
2023/06/18 09:54:17;;;;;;;6.05;5.10;;;;;;;;;;5031036;28;20260;-77
2023/06/18 09:56:54;;;;;;;7.15;5.93;;;;;;;;;;5033507;28;20178;-78
2023/06/18 09:59:22;;;;;;;6.57;5.45;;;;;;;;;;5014637;28;20294;-77
2023/06/18 10:01:47;;;;;;;6.78;6.05;;;;;;;;;;5003567;28;20203;-77
2023/06/18 10:04:13;;;;;;;6.97;5.78;;;;;;;;;;5025005;28;20162;-77
2023/06/18 10:06:39;;;;;;;8.25;6.00;;;;;;;;;;5024794;28;20224;-78
2023/06/18 10:09:06;;;;;;;9.00;5.95;;;;;;;;;;5020684;28;20708;-81
2023/06/18 10:11:32;;;;;;;6.63;5.93;;;;;;;;;;5004835;28;20217;-78
2023/06/18 10:14:00;;;;;;;8.70;5.97;;;;;;;;;;5029837;28;20174;-78
2023/06/18 10:16:26;;;;;;;6.90;5.95;;;;;;;;;;5029835;28;20190;-78
2023/06/18 10:18:54;;;;;;;6.18;5.57;;;;;;;;;;5027881;28;20255;-78
2023/06/18 10:21:21;;;;;;;7.93;5.90;;;;;;;;;;5012298;28;20237;-78
2023/06/18 10:23:48;;;;;;;6.57;5.13;;;;;;;;;;5020306;28;20245;-79
2023/06/18 10:26:13;;;;;;;5.57;5.07;;;;;;;;;;5010067;28;20178;-79
2023/06/18 10:28:39;;;;;;;13.40;6.20;;;;;;;;;;5032822;28;20222;-78
2023/06/18 10:31:05;;;;;;;8.02;6.70;;;;;;;;;;5041562;28;20198;-79
2023/06/18 10:33:33;;;;;;;7.60;6.40;;;;;;;;;;5034882;28;20252;-79
2023/06/18 10:35:59;;;;;;;7.75;6.18;;;;;;;;;;5028771;28;20206;-78
2023/06/18 10:38:24;;;;;;;7.03;6.28;;;;;;;;;;5032549;28;20183;-78
2023/06/18 10:41:04;;;;;;;6.55;5.90;;;;;;;;;;5029736;28;20194;-78
2023/06/18 10:43:29;;;;;;;7.93;6.30;;;;;;;;;;5029343;28;20205;-78
2023/06/18 10:46:07;;;;;;;6.95;6.00;;;;;;;;;;5027761;28;20174;-78
2023/06/18 10:48:32;;;;;;;6.50;5.88;;;;;;;;;;5029606;28;20277;-78
2023/06/18 10:51:30;;;;;;;7.83;6.97;;;;;;;;;;5030506;28;20621;-78
2023/06/18 10:54:14;;;;;;;5.80;5.30;;;;;;;;;;4962595;28;20420;-78
2023/06/18 10:56:48;;;;;;;9.52;5.72;;;;;;;;;;5010948;28;20182;-78
2023/06/18 10:59:13;;;;;;;5.45;4.82;;;;;;;;;;5011359;28;20237;-78
2023/06/18 11:01:42;;;;;;;6.57;5.80;;;;;;;;;;5014203;28;20227;-78
2023/06/18 11:04:07;;;;;;;7.05;5.40;;;;;;;;;;5039166;28;20450;-78
2023/06/18 11:06:32;;;;;;;10.37;5.60;;;;;;;;;;5013264;28;20181;-77
2023/06/18 11:08:57;;;;;;;6.63;5.72;;;;;;;;;;5011468;28;20808;-78
2023/06/18 11:11:23;;;;;;;7.65;5.93;;;;;;;;;;5029537;28;20198;-78
2023/06/18 11:13:55;;;;;;;6.00;5.40;;;;;;;;;;5032652;28;20193;-79
2023/06/18 11:16:21;;;;;;;5.45;4.95;;;;;;;;;;5027060;28;20175;-78
2023/06/18 11:18:46;;;;;;;10.43;5.78;;;;;;;;;;5029787;28;20189;-77
2023/06/18 11:21:18;;;;;;;8.47;5.03;;;;;;;;;;5004233;28;20244;-78
2023/06/18 11:23:43;;;;;;;5.68;5.18;;;;;;;;;;5017033;28;20502;-78
2023/06/18 11:26:12;;;;;;;6.15;4.90;;;;;;;;;;5028957;28;20213;-77
2023/06/18 11:28:38;;;;;;;6.10;5.50;;;;;;;;;;5029778;28;20174;-78
2023/06/18 11:31:03;;;;;;;7.00;5.32;;;;;;;;;;5033785;28;20197;-78
2023/06/18 11:33:29;;;;;;;6.25;4.65;;;;;;;;;;5025824;28;20194;-77
2023/06/18 11:36:05;;;;;;;5.93;5.22;;;;;;;;;;5025089;28;20208;-78
2023/06/18 11:38:31;;;;;;;5.47;4.97;;;;;;;;;;5025629;28;20181;-78
2023/06/18 11:40:56;;;;;;;7.78;5.50;;;;;;;;;;5030807;28;20197;-79
2023/06/18 11:43:21;;;;;;;5.45;4.95;;;;;;;;;;5028149;28;20707;-77
2023/06/18 11:45:51;;;;;;;7.10;6.07;;;;;;;;;;5011580;28;20515;-78
2023/06/18 11:48:17;;;;;;;5.93;5.38;;;;;;;;;;5006349;28;21550;-80
2023/06/18 11:50:43;;;;;;;5.82;5.03;;;;;;;;;;5026257;28;20200;-78
2023/06/18 11:53:09;;;;;;;7.22;5.65;;;;;;;;;;5008439;28;20186;-79
2023/06/18 11:55:36;;;;;;;5.50;5.00;;;;;;;;;;5028086;28;20191;-79
2023/06/18 11:58:01;;;;;;;8.45;5.38;;;;;;;;;;5016043;28;20537;-79
2023/06/18 12:00:27;;;;;;;6.05;5.45;;;;;;;;;;5004884;28;20292;-78
2023/06/18 12:02:53;;;;;;;5.57;4.38;;;;;;;;;;5029373;28;20202;-78
2023/06/18 12:05:18;;;;;;;6.55;5.55;;;;;;;;;;5007846;28;20182;-77
2023/06/18 12:07:44;;;;;;;5.77;5.20;;;;;;;;;;5027823;28;20185;-79
2023/06/18 12:10:10;;;;;;;7.53;4.97;;;;;;;;;;5007967;28;20454;-78
2023/06/18 12:12:48;;;;;;;5.45;4.95;;;;;;;;;;5025681;28;20183;-78
2023/06/18 12:15:22;;;;;;;4.55;4.13;;;;;;;;;;5028885;28;20718;-79
2023/06/18 12:17:50;;;;;;;7.05;5.53;;;;;;;;;;5028814;28;20203;-78
2023/06/18 12:20:17;;;;;;;9.02;5.03;;;;;;;;;;5025240;23;20199;-70
2023/06/18 12:22:43;;;;;;;6.93;5.25;;;;;;;;;;5063381;28;20615;-71
2023/06/18 12:25:09;;;;;;;5.50;4.93;;;;;;;;;;5064596;28;20197;-71
2023/06/18 12:27:37;;;;;;;5.60;4.95;;;;;;;;;;5069295;28;20267;-71
2023/06/18 12:30:03;;;;;;;5.82;4.50;;;;;;;;;;5072187;28;20226;-71
2023/06/18 12:32:28;;;;;;;6.53;5.25;;;;;;;;;;5065303;28;20560;-71
2023/06/18 12:34:53;;;;;;;5.80;5.30;;;;;;;;;;5071963;28;20172;-71
2023/06/18 12:37:18;;;;;;;5.80;5.30;;;;;;;;;;5067636;28;20433;-69
2023/06/18 12:40:02;;;;;;;5.53;5.03;;;;;;;;;;5066000;28;20410;-70
2023/06/18 12:42:28;;;;;;;7.60;6.28;;;;;;;;;;5070206;28;20445;-71
2023/06/18 12:44:53;;;;;;;5.23;4.73;;;;;;;;;;5070670;28;20208;-69
2023/06/18 12:47:18;;;;;;;6.32;5.72;;;;;;;;;;5066066;28;20484;-70
2023/06/18 12:49:44;;;;;;;5.83;5.30;;;;;;;;;;5069674;28;20181;-68
2023/06/18 12:52:16;;;;;;;6.47;5.53;;;;;;;;;;5068065;28;20449;-70
2023/06/18 12:54:41;;;;;;;7.68;5.63;;;;;;;;;;5067812;28;20658;-69
2023/06/18 12:57:06;;;;;;;6.47;5.40;;;;;;;;;;5065895;28;20215;-70
2023/06/18 12:59:32;;;;;;;6.83;5.40;;;;;;;;;;5069846;28;20417;-69
2023/06/18 13:01:57;;;;;;;9.40;5.30;;;;;;;;;;5065985;28;20442;-70
2023/06/18 13:04:22;;;;;;;7.05;5.85;;;;;;;;;;5068482;28;20444;-70
2023/06/18 13:06:49;;;;;;;6.15;5.28;;;;;;;;;;5072774;28;20177;-71
2023/06/18 13:09:15;;;;;;;6.50;5.50;;;;;;;;;;5064063;28;20181;-70
2023/06/18 13:11:40;;;;;;;6.00;4.93;;;;;;;;;;5070670;28;20667;-70
2023/06/18 13:14:05;;;;;;;5.87;5.37;;;;;;;;;;5070008;28;20285;-70
2023/06/18 13:16:30;;;;;;;5.55;4.93;;;;;;;;;;5071411;28;20978;-69
2023/06/18 13:18:56;;;;;;;5.28;4.60;;;;;;;;;;5070764;28;20184;-70
2023/06/18 13:21:21;;;;;;;7.35;4.97;;;;;;;;;;5071224;28;20334;-70
2023/06/18 13:23:46;;;;;;;5.65;5.15;;;;;;;;;;5069129;28;20219;-71
2023/06/18 13:26:11;;;;;;;5.47;4.93;;;;;;;;;;5066438;28;20181;-70
2023/06/18 13:28:37;;;;;;;5.95;5.38;;;;;;;;;;5067980;28;20185;-70
2023/06/18 13:31:02;;;;;;;7.75;4.95;;;;;;;;;;5068385;28;20275;-71
2023/06/18 13:33:27;;;;;;;5.90;5.30;;;;;;;;;;5065139;28;20231;-69
2023/06/18 13:35:52;;;;;;;5.30;4.80;;;;;;;;;;5066225;28;20433;-71
2023/06/18 13:38:18;;;;;;;8.27;5.10;;;;;;;;;;5065686;28;20453;-69
2023/06/18 13:40:43;;;;;;;5.95;5.20;;;;;;;;;;5070493;28;20492;-70
2023/06/18 13:43:11;;;;;;;6.10;5.50;;;;;;;;;;5068428;28;20284;-71
2023/06/18 13:45:38;;;;;;;5.53;5.03;;;;;;;;;;5067842;28;20428;-71
2023/06/18 13:48:03;;;;;;;7.18;5.10;;;;;;;;;;5068638;28;20219;-70
2023/06/18 13:50:29;;;;;;;7.35;6.18;;;;;;;;;;5067061;28;20193;-71
2023/06/18 13:52:54;;;;;;;5.38;4.88;;;;;;;;;;5067348;28;20726;-71
2023/06/18 13:55:19;;;;;;;7.17;5.40;;;;;;;;;;5070580;28;20180;-70
2023/06/18 13:57:44;;;;;;;7.00;5.57;;;;;;;;;;5070592;28;20448;-70
2023/06/18 14:00:10;;;;;;;5.77;4.70;;;;;;;;;;5068919;28;20943;-71
2023/06/18 14:02:35;;;;;;;6.32;4.82;;;;;;;;;;5071489;28;20295;-69
2023/06/18 14:05:00;;;;;;;5.38;4.65;;;;;;;;;;5065978;28;20588;-71
2023/06/18 14:07:28;;;;;;;6.30;4.97;;;;;;;;;;5066305;28;20185;-70
2023/06/18 14:09:54;;;;;;;5.70;5.20;;;;;;;;;;5063241;28;20176;-71
2023/06/18 14:12:19;;;;;;;6.43;5.03;;;;;;;;;;5062971;28;20176;-71
2023/06/18 14:14:44;;;;;;;6.07;4.80;;;;;;;;;;5067361;28;20203;-71
2023/06/18 14:17:10;;;;;;;8.65;5.35;;;;;;;;;;5068020;28;20750;-71
2023/06/18 14:19:39;;;;;;;5.60;4.90;;;;;;;;;;5070615;28;20262;-71
2023/06/18 14:22:05;;;;;;;6.88;4.82;;;;;;;;;;5071342;28;20589;-71
2023/06/18 14:24:30;;;;;;;5.80;5.30;;;;;;;;;;5066676;28;20177;-71
2023/06/18 14:26:55;;;;;;;6.88;4.88;;;;;;;;;;5067680;28;20694;-71
2023/06/18 14:29:20;;;;;;;6.75;5.20;;;;;;;;;;5062119;28;20181;-70
2023/06/18 14:31:45;;;;;;;8.50;5.13;;;;;;;;;;5064024;28;20213;-69